createdAt,value
2018-06-21T00:01:16.531Z,13.57
2018-06-21T00:04:19.675Z,12.53
2018-06-21T00:07:22.807Z,11.97
2018-06-21T00:10:25.983Z,11.90
2018-06-21T00:13:29.102Z,11.67
2018-06-21T00:16:32.250Z,12.50
2018-06-21T00:19:35.438Z,12.30
2018-06-21T00:22:38.594Z,13.47
2018-06-21T00:25:41.747Z,11.97
2018-06-21T00:28:44.870Z,11.30
2018-06-21T00:31:48.059Z,12.80
2018-06-21T00:34:51.204Z,12.43
2018-06-21T00:37:54.447Z,12.40
2018-06-21T00:40:57.703Z,13.17
2018-06-21T00:44:00.846Z,13.80
2018-06-21T00:47:03.984Z,13.23
2018-06-21T00:50:07.122Z,11.73
2018-06-21T00:53:10.373Z,13.63
2018-06-21T00:56:16.610Z,14.13
2018-06-21T00:59:19.779Z,14.03
2018-06-21T01:02:22.899Z,14.33
2018-06-21T01:05:26.027Z,12.80
2018-06-21T01:08:29.142Z,11.70
2018-06-21T01:11:32.311Z,14.73
2018-06-21T01:14:35.492Z,12.80
2018-06-21T01:17:38.594Z,14.27
2018-06-21T01:20:41.707Z,12.20
2018-06-21T01:23:44.923Z,13.43
2018-06-21T01:26:48.079Z,16.17
2018-06-21T01:29:51.233Z,13.97
2018-06-21T01:32:54.374Z,15.20
2018-06-21T01:35:57.525Z,13.27
2018-06-21T01:39:00.861Z,15.47
2018-06-21T01:42:03.990Z,13.37
2018-06-21T01:45:07.135Z,13.30
2018-06-21T01:48:10.276Z,16.00
2018-06-21T01:51:13.394Z,13.27
2018-06-21T01:54:16.553Z,15.37
2018-06-21T01:57:19.659Z,14.13
2018-06-21T02:00:22.773Z,17.00
2018-06-21T02:03:25.932Z,15.07
2018-06-21T02:06:29.233Z,16.80
2018-06-21T02:09:32.440Z,15.83
2018-06-21T02:12:35.654Z,15.93
2018-06-21T02:15:38.804Z,15.23
2018-06-21T02:18:42.070Z,14.77
2018-06-21T02:21:45.296Z,14.73
2018-06-21T02:24:48.448Z,15.47
2018-06-21T02:27:51.591Z,14.27
2018-06-21T02:30:54.727Z,16.40
2018-06-21T02:33:57.847Z,14.17
2018-06-21T02:37:00.963Z,13.87
2018-06-21T02:40:04.176Z,16.27
2018-06-21T02:43:07.575Z,13.97
2018-06-21T02:46:10.722Z,15.03
2018-06-21T02:49:13.919Z,17.87
2018-06-21T02:52:17.034Z,15.37
2018-06-21T02:55:20.195Z,16.50
2018-06-21T02:58:23.324Z,14.33
2018-06-21T03:01:26.442Z,14.07
2018-06-21T03:04:29.595Z,13.93
2018-06-21T03:07:32.730Z,14.67
2018-06-21T03:10:35.944Z,15.03
2018-06-21T03:13:39.151Z,15.70
2018-06-21T03:16:42.249Z,14.07
2018-06-21T03:19:45.423Z,15.00
2018-06-21T03:22:48.553Z,14.50
2018-06-21T03:25:51.683Z,14.97
2018-06-21T03:28:54.830Z,14.23
2018-06-21T03:31:58.051Z,12.93
2018-06-21T03:35:01.209Z,14.40
2018-06-21T03:38:04.350Z,15.03
2018-06-21T03:41:07.502Z,15.03
2018-06-21T03:44:10.682Z,13.87
2018-06-21T03:47:13.845Z,14.30
2018-06-21T03:50:16.973Z,14.23
2018-06-21T03:53:20.097Z,15.20
2018-06-21T03:56:23.217Z,16.33
2018-06-21T03:59:26.356Z,16.93
2018-06-21T04:02:29.457Z,12.87
2018-06-21T04:05:32.674Z,17.43
2018-06-21T04:08:35.796Z,14.47
2018-06-21T04:11:39.144Z,16.00
2018-06-21T04:14:42.261Z,13.93
2018-06-21T04:17:45.412Z,13.90
2018-06-21T04:20:48.656Z,14.37
2018-06-21T04:23:51.800Z,15.60
2018-06-21T04:26:55.015Z,13.47
2018-06-21T04:29:58.194Z,14.07
2018-06-21T04:33:02.033Z,15.87
2018-06-21T04:36:05.287Z,14.90
2018-06-21T04:39:09.148Z,16.00
2018-06-21T04:42:12.390Z,14.13
2018-06-21T04:45:15.634Z,16.30
2018-06-21T04:48:18.754Z,15.50
2018-06-21T04:51:21.931Z,13.67
2018-06-21T04:54:25.199Z,16.07
2018-06-21T04:57:28.373Z,16.60
2018-06-21T05:00:31.535Z,16.07
2018-06-21T05:03:34.810Z,13.53
2018-06-21T05:06:38.025Z,14.43
2018-06-21T05:09:41.141Z,16.23
2018-06-21T05:12:44.376Z,13.73
2018-06-21T05:15:47.502Z,12.97
2018-06-21T05:18:50.680Z,14.47
2018-06-21T05:21:53.851Z,13.77
2018-06-21T05:24:57.039Z,13.37
2018-06-21T05:28:00.197Z,13.00
2018-06-21T05:31:03.442Z,12.33
2018-06-21T05:34:06.629Z,10.60
2018-06-21T05:37:09.734Z,12.33
2018-06-21T05:40:24.545Z,10.53
2018-06-21T05:43:27.722Z,9.97
2018-06-21T05:46:30.962Z,11.83
2018-06-21T05:49:34.157Z,11.07
2018-06-21T05:52:37.333Z,12.00
2018-06-21T05:55:40.506Z,10.57
2018-06-21T05:58:43.670Z,9.80
2018-06-21T06:01:46.865Z,10.87
2018-06-21T06:04:50.081Z,14.43
2018-06-21T06:07:53.307Z,10.37
2018-06-21T06:10:56.525Z,15.97
2018-06-21T06:13:59.803Z,9.63
2018-06-21T06:17:03.042Z,9.93
2018-06-21T06:20:06.302Z,10.00
2018-06-21T06:23:09.397Z,8.47
2018-06-21T06:26:12.543Z,10.47
2018-06-21T06:29:15.710Z,9.10
2018-06-21T06:32:19.182Z,14.17
2018-06-21T06:35:26.691Z,10.03
2018-06-21T06:38:29.923Z,8.67
2018-06-21T06:41:33.115Z,8.37
2018-06-21T06:44:36.311Z,10.50
2018-06-21T06:47:39.622Z,10.33
2018-06-21T06:50:42.799Z,17.13
2018-06-21T06:53:45.988Z,9.70
2018-06-21T06:56:49.277Z,10.00
2018-06-21T06:59:52.556Z,10.87
2018-06-21T07:02:55.702Z,10.53
2018-06-21T07:05:58.897Z,11.20
2018-06-21T07:09:02.082Z,6.97
2018-06-21T07:12:05.230Z,7.00
2018-06-21T07:15:08.421Z,7.30
2018-06-21T07:18:11.612Z,9.47
2018-06-21T07:21:14.762Z,12.37
2018-06-21T07:24:17.938Z,12.83
2018-06-21T07:27:21.117Z,7.57
2018-06-21T07:30:24.801Z,7.87
2018-06-21T07:33:28.524Z,7.47
2018-06-21T07:36:31.742Z,9.67
2018-06-21T07:39:34.911Z,9.83
2018-06-21T07:42:38.227Z,7.20
2018-06-21T07:45:41.440Z,9.07
2018-06-21T07:48:45.976Z,8.93
2018-06-21T07:51:51.272Z,8.97
2018-06-21T07:54:56.037Z,9.47
2018-06-21T07:58:00.425Z,7.47
2018-06-21T08:01:04.315Z,8.40
2018-06-21T08:04:11.161Z,8.97
2018-06-21T08:07:15.737Z,7.27
2018-06-21T08:10:19.049Z,7.10
2018-06-21T08:13:23.582Z,7.37
2018-06-21T08:16:27.428Z,6.67
2018-06-21T08:19:30.664Z,5.90
2018-06-21T08:22:36.523Z,5.73
2018-06-21T08:25:40.045Z,9.50
2018-06-21T08:28:50.072Z,6.83
2018-06-21T08:31:54.593Z,5.33
2018-06-21T08:34:58.184Z,8.87
2018-06-21T08:38:01.759Z,6.80
2018-06-21T08:41:07.661Z,6.47
2018-06-21T08:44:11.606Z,6.93
2018-06-21T08:47:15.109Z,6.83
2018-06-21T08:50:18.986Z,8.13
2018-06-21T08:53:23.504Z,6.43
2018-06-21T08:56:27.753Z,8.43
2018-06-21T08:59:31.430Z,6.57
2018-06-21T09:02:35.989Z,7.67
2018-06-21T09:05:40.699Z,6.90
2018-06-21T09:08:46.013Z,8.97
2018-06-21T09:11:50.294Z,6.97
2018-06-21T09:14:55.010Z,8.90
2018-06-21T09:17:59.727Z,6.03
2018-06-21T09:21:05.360Z,6.70
2018-06-21T09:24:09.166Z,6.87
2018-06-21T09:27:14.488Z,8.10
2018-06-21T09:30:18.075Z,6.07
2018-06-21T09:33:22.689Z,6.30
2018-06-21T09:36:26.438Z,8.53
2018-06-21T09:39:35.741Z,7.73
2018-06-21T09:42:44.394Z,8.47
2018-06-21T09:45:53.045Z,8.03
2018-06-21T09:48:56.350Z,7.43
2018-06-21T09:52:04.672Z,9.57
2018-06-21T09:55:07.957Z,8.93
2018-06-21T09:58:11.608Z,5.43
2018-06-21T10:01:15.460Z,11.10
2018-06-21T10:04:20.070Z,7.17
2018-06-21T10:07:24.866Z,10.37
2018-06-21T10:10:29.167Z,9.00
2018-06-21T10:13:32.886Z,7.47
2018-06-21T10:16:36.077Z,11.03
2018-06-21T10:19:40.702Z,6.33
2018-06-21T10:22:43.873Z,8.93
2018-06-21T10:25:47.233Z,7.23
2018-06-21T10:28:50.499Z,10.97
2018-06-21T10:31:53.836Z,4.83
2018-06-21T10:35:01.884Z,5.50
2018-06-21T10:38:05.103Z,5.60
2018-06-21T10:41:08.321Z,9.57
2018-06-21T10:44:11.529Z,6.03
2018-06-21T10:47:14.757Z,13.40
2018-06-21T10:50:18.016Z,31.77
2018-06-21T10:53:21.214Z,43.73
2018-06-21T10:56:24.546Z,26.90
2018-06-21T10:59:27.765Z,17.70
2018-06-21T11:02:30.920Z,11.63
2018-06-21T11:05:34.127Z,7.90
2018-06-21T11:08:37.348Z,14.67
2018-06-21T11:11:40.521Z,6.17
2018-06-21T11:14:44.639Z,2.87
2018-06-21T11:17:47.830Z,5.00
2018-06-21T11:20:51.014Z,2.97
2018-06-21T11:23:54.208Z,4.23
2018-06-21T11:26:57.529Z,3.87
2018-06-21T11:30:00.738Z,5.50
2018-06-21T11:33:04.111Z,3.90
2018-06-21T11:36:07.412Z,2.87
2018-06-21T11:39:11.339Z,2.03
2018-06-21T11:42:14.621Z,4.47
2018-06-21T11:45:17.860Z,7.53
2018-06-21T11:48:21.263Z,5.60
2018-06-21T11:51:24.727Z,6.77
2018-06-21T11:54:28.001Z,4.17
2018-06-21T11:57:31.234Z,2.53
2018-06-21T12:00:34.424Z,2.77
2018-06-21T12:03:37.990Z,2.30
2018-06-21T12:06:41.407Z,1.73
2018-06-21T12:09:45.014Z,4.50
2018-06-21T12:12:53.058Z,5.43
2018-06-21T12:15:56.988Z,1.63
2018-06-21T12:19:02.247Z,3.20
2018-06-21T12:22:05.692Z,2.83
2018-06-21T12:25:11.436Z,2.40
2018-06-21T12:28:20.265Z,1.40
2018-06-21T12:31:25.035Z,7.93
2018-06-21T12:34:30.976Z,3.13
2018-06-21T12:37:35.822Z,11.40
2018-06-21T12:40:39.660Z,1.77
2018-06-21T12:43:43.626Z,2.97
2018-06-21T12:46:47.181Z,1.70
2018-06-21T12:49:50.564Z,2.90
2018-06-21T12:52:54.113Z,1.50
2018-06-21T12:55:57.430Z,1.60
2018-06-21T12:59:02.416Z,2.97
2018-06-21T13:02:06.277Z,3.07
2018-06-21T13:05:09.733Z,2.47
2018-06-21T13:08:18.735Z,1.90
2018-06-21T13:11:41.308Z,3.93
2018-06-21T13:14:44.547Z,2.07
2018-06-21T13:17:47.973Z,2.53
2018-06-21T13:20:52.278Z,2.67
2018-06-21T13:23:55.587Z,1.90
2018-06-21T13:26:58.935Z,3.00
2018-06-21T13:30:02.694Z,2.07
2018-06-21T13:33:06.350Z,2.60
2018-06-21T13:36:10.698Z,1.97
2018-06-21T13:39:14.406Z,5.23
2018-06-21T13:42:18.194Z,4.03
2018-06-21T13:45:22.504Z,2.50
2018-06-21T13:48:25.879Z,4.50
2018-06-21T13:51:29.756Z,2.57
2018-06-21T13:54:33.044Z,2.20
2018-06-21T13:57:36.284Z,5.67
2018-06-21T14:00:39.672Z,5.83
2018-06-21T14:03:42.934Z,2.70
2018-06-21T14:06:48.442Z,4.73
2018-06-21T14:09:52.861Z,2.73
2018-06-21T14:12:56.776Z,4.47
2018-06-21T14:16:00.240Z,2.13
2018-06-21T14:19:05.654Z,4.17
2018-06-21T14:22:09.693Z,1.40
2018-06-21T14:25:14.174Z,4.53
2018-06-21T14:28:18.176Z,1.93
2018-06-21T14:31:23.084Z,6.20
2018-06-21T14:34:26.762Z,2.37
2018-06-21T14:37:30.618Z,2.63
2018-06-21T14:40:35.352Z,2.93
2018-06-21T14:43:39.169Z,2.17
2018-06-21T14:46:42.766Z,2.33
2018-06-21T14:49:46.969Z,4.20
2018-06-21T14:52:50.803Z,1.37
2018-06-21T14:55:54.047Z,3.37
2018-06-21T14:58:57.453Z,1.90
2018-06-21T15:02:00.771Z,1.70
2018-06-21T15:05:04.210Z,1.83
2018-06-21T15:08:07.584Z,2.47
2018-06-21T15:11:11.039Z,1.63
2018-06-21T15:14:14.995Z,1.87
2018-06-21T15:17:18.366Z,3.07
2018-06-21T15:20:21.759Z,2.00
2018-06-21T15:23:25.327Z,3.03
2018-06-21T15:26:29.870Z,9.63
2018-06-21T15:29:33.186Z,4.03
2018-06-21T15:32:36.557Z,3.43
2018-06-21T15:35:39.878Z,8.33
2018-06-21T15:38:43.399Z,8.77
2018-06-21T15:41:46.725Z,6.63
2018-06-21T15:44:50.539Z,5.23
2018-06-21T15:47:55.188Z,5.70
2018-06-21T15:50:58.833Z,5.13
2018-06-21T15:54:06.389Z,3.40
2018-06-21T15:57:13.712Z,5.10
2018-06-21T16:00:17.797Z,3.40
2018-06-21T16:03:26.594Z,4.90
2018-06-21T16:06:31.979Z,4.60
2018-06-21T16:09:37.324Z,3.47
2018-06-21T16:12:41.578Z,9.57
2018-06-21T16:15:47.459Z,5.17
2018-06-21T16:18:52.446Z,5.47
2018-06-21T16:21:58.805Z,5.43
2018-06-21T16:25:03.859Z,4.43
2018-06-21T16:28:09.267Z,2.80
2018-06-21T16:31:13.815Z,2.47
2018-06-21T16:34:18.429Z,3.00
2018-06-21T16:37:25.558Z,1.70
2018-06-21T16:40:30.676Z,8.23
2018-06-21T16:43:34.359Z,2.23
2018-06-21T16:46:37.990Z,4.37
2018-06-21T16:49:49.980Z,6.17
2018-06-21T16:52:54.198Z,1.80
2018-06-21T16:55:59.030Z,4.67
2018-06-21T16:59:02.886Z,3.30
2018-06-21T17:02:07.980Z,8.77
2018-06-21T17:05:11.742Z,3.80
2018-06-21T17:11:28.703Z,5.30
2018-06-21T17:14:34.398Z,2.47
2018-06-21T17:18:02.446Z,3.07
2018-06-21T17:21:06.959Z,4.90
2018-06-21T17:24:10.825Z,10.23
2018-06-21T17:27:15.079Z,3.70
2018-06-21T17:30:23.451Z,3.97
2018-06-21T17:33:29.453Z,4.73
2018-06-21T17:36:35.467Z,2.20
2018-06-21T17:39:39.320Z,6.90
2018-06-21T17:42:45.673Z,6.07
2018-06-21T17:45:49.556Z,3.67
2018-06-21T17:48:53.550Z,2.33
2018-06-21T17:51:58.715Z,3.90
2018-06-21T17:55:03.012Z,3.00
2018-06-21T17:58:08.355Z,6.53
2018-06-21T18:01:13.808Z,1.43
2018-06-21T18:04:18.745Z,3.67
2018-06-21T18:07:22.587Z,1.87
2018-06-21T18:10:26.944Z,1.80
2018-06-21T18:13:30.963Z,3.53
2018-06-21T18:16:35.458Z,5.03
2018-06-21T18:19:44.710Z,3.37
2018-06-21T18:22:49.636Z,3.13
2018-06-21T18:25:53.525Z,5.00
2018-06-21T18:28:57.361Z,1.70
2018-06-21T18:32:01.444Z,2.27
2018-06-21T18:35:05.336Z,2.17
2018-06-21T18:38:10.555Z,2.17
2018-06-21T18:41:14.742Z,3.23
2018-06-21T18:44:19.075Z,1.20
2018-06-21T18:47:22.941Z,6.13
2018-06-21T18:50:27.289Z,2.03
2018-06-21T18:53:31.113Z,5.47
2018-06-21T18:56:34.835Z,1.77
2018-06-21T18:59:38.758Z,2.23
2018-06-21T19:02:43.845Z,3.40
2018-06-21T19:05:48.966Z,1.33
2018-06-21T19:11:04.624Z,2.03
2018-06-21T19:14:08.772Z,2.77
2018-06-21T19:17:13.026Z,1.33
2018-06-21T19:20:17.137Z,4.27
2018-06-21T19:23:20.746Z,3.70
2018-06-21T19:26:26.681Z,4.33
2018-06-21T19:29:30.577Z,1.50
2018-06-21T19:32:34.428Z,1.10
2018-06-21T19:35:38.028Z,1.90
2018-06-21T19:38:41.657Z,1.40
2018-06-21T19:41:45.508Z,2.00
2018-06-21T19:44:55.031Z,0.93
2018-06-21T19:48:18.854Z,1.83
2018-06-21T19:51:22.625Z,4.80
2018-06-21T19:54:26.395Z,1.93
2018-06-21T19:57:30.341Z,4.43
2018-06-21T20:00:33.929Z,3.80
2018-06-21T20:03:37.491Z,6.77
2018-06-21T20:06:41.730Z,1.57
2018-06-21T20:09:45.872Z,1.23
2018-06-21T20:12:49.518Z,1.60
2018-06-21T20:15:54.642Z,2.00
2018-06-21T20:19:02.557Z,2.97
2018-06-21T20:22:06.581Z,3.17
2018-06-21T20:25:10.295Z,2.20
2018-06-21T20:28:13.922Z,1.07
2018-06-21T20:31:18.159Z,2.27
2018-06-21T20:34:21.767Z,3.57
2018-06-21T20:37:25.572Z,4.40
2018-06-21T20:40:30.949Z,10.10
2018-06-21T20:43:34.505Z,1.73
2018-06-21T20:46:37.902Z,2.10
2018-06-21T20:49:41.437Z,1.13
2018-06-21T20:52:45.602Z,3.40
2018-06-21T20:55:50.985Z,1.10
2018-06-21T20:58:54.581Z,1.43
2018-06-21T21:01:58.096Z,2.60
2018-06-21T21:05:05.058Z,3.70
2018-06-21T21:08:08.627Z,2.17
2018-06-21T21:11:11.921Z,2.10
2018-06-21T21:14:17.483Z,2.10
2018-06-21T21:17:20.825Z,3.03
2018-06-21T21:20:24.759Z,1.70
2018-06-21T21:23:28.131Z,3.70
2018-06-21T21:26:31.403Z,3.20
2018-06-21T21:29:35.521Z,1.17
2018-06-21T21:32:38.908Z,6.97
2018-06-21T21:35:43.034Z,3.20
2018-06-21T21:38:46.358Z,6.20
2018-06-21T21:41:49.949Z,11.27
2018-06-21T21:44:53.290Z,7.13
2018-06-21T21:47:57.280Z,1.93
2018-06-21T21:51:01.364Z,6.60
2018-06-21T21:54:06.155Z,3.47
2018-06-21T21:57:09.495Z,4.60
2018-06-21T22:00:25.249Z,4.47
2018-06-21T22:03:30.474Z,3.93
2018-06-21T22:06:35.816Z,3.20
2018-06-21T22:09:39.505Z,1.67
2018-06-21T22:12:46.452Z,2.20
2018-06-21T22:15:50.207Z,4.10
2018-06-21T22:18:53.578Z,6.40
2018-06-21T22:21:56.975Z,2.03
2018-06-21T22:25:00.323Z,1.70
2018-06-21T22:28:03.662Z,2.13
2018-06-21T22:31:06.874Z,3.07
2018-06-21T22:34:10.376Z,2.10
2018-06-21T22:37:13.778Z,1.73
2018-06-21T22:40:16.999Z,4.57
2018-06-21T22:43:20.379Z,2.53
2018-06-21T22:46:23.769Z,2.47
2018-06-21T22:49:26.972Z,1.83
2018-06-21T22:52:30.260Z,3.97
2018-06-21T22:55:33.543Z,4.27
2018-06-21T22:58:36.798Z,3.70
2018-06-21T23:01:40.094Z,1.23
2018-06-21T23:04:43.332Z,2.00
2018-06-21T23:07:46.627Z,1.53
2018-06-21T23:10:49.912Z,4.03
2018-06-21T23:13:53.249Z,3.90
2018-06-21T23:16:58.791Z,4.27
2018-06-21T23:20:02.018Z,6.50
2018-06-21T23:23:05.468Z,4.90
2018-06-21T23:26:08.676Z,3.70
2018-06-21T23:29:11.915Z,4.83
2018-06-21T23:32:15.117Z,3.20
2018-06-21T23:35:18.303Z,2.40
2018-06-21T23:38:21.521Z,3.30
2018-06-21T23:41:24.703Z,4.10
2018-06-21T23:44:27.893Z,7.20
2018-06-21T23:47:31.093Z,4.80
2018-06-21T23:50:34.279Z,4.07
2018-06-21T23:53:37.470Z,3.20
2018-06-21T23:56:41.482Z,3.87
2018-06-21T23:59:44.665Z,4.23
